Los Angeles, California
Traffic Map
Current Weather Conditions
Los Angeles, California
Clear
Clear
69°
Feels Like: 69°
Wind Chill: 69° Ceiling: Unl
Heat Index: 69° Visibility: 10mi
Dew Point: 52° Wind: 8mph
Humidity: 54% Direction: 270° (W)
Pressure: 29.88in Gusts: 0mph
Raw Report DataKCQT 182247Z AUTO 27007KT 10SM CLR 21/11 A2988 RMK AO2 SLP115 T02060111
Traffic Incident Summary
Active as of:
Severity:
Category:
InformationThere was an issue retrieving the traffic information for this location. Please try a different location or try again shortly.
Advertisements
At Last! Intellicast now available for iPhone and Android